sensor_id;sensor_type;location;lat;lon;timestamp;temperature;humidity
54684;DHT22;40582;53.100;6.686;2023-06-04T00:00:47;12.30;99.90
54684;DHT22;40582;53.100;6.686;2023-06-04T00:03:13;12.30;99.90
54684;DHT22;40582;53.100;6.686;2023-06-04T00:05:39;12.30;99.90
54684;DHT22;40582;53.100;6.686;2023-06-04T00:08:04;12.30;99.90
54684;DHT22;40582;53.100;6.686;2023-06-04T00:10:30;12.20;99.90
54684;DHT22;40582;53.100;6.686;2023-06-04T00:12:57;12.20;99.90
54684;DHT22;40582;53.100;6.686;2023-06-04T00:15:23;12.20;99.90
54684;DHT22;40582;53.100;6.686;2023-06-04T00:17:49;12.10;99.90
54684;DHT22;40582;53.100;6.686;2023-06-04T00:20:16;12.10;99.90
54684;DHT22;40582;53.100;6.686;2023-06-04T00:22:42;12.10;99.90
54684;DHT22;40582;53.100;6.686;2023-06-04T00:25:09;12.10;99.90
54684;DHT22;40582;53.100;6.686;2023-06-04T00:27:35;12.10;99.90
54684;DHT22;40582;53.100;6.686;2023-06-04T00:30:01;12.00;99.90
54684;DHT22;40582;53.100;6.686;2023-06-04T00:32:27;12.00;99.90
54684;DHT22;40582;53.100;6.686;2023-06-04T00:34:54;11.90;99.90
54684;DHT22;40582;53.100;6.686;2023-06-04T00:37:23;11.90;99.90
54684;DHT22;40582;53.100;6.686;2023-06-04T00:39:49;11.90;99.90
54684;DHT22;40582;53.100;6.686;2023-06-04T00:42:15;11.90;99.90
54684;DHT22;40582;53.100;6.686;2023-06-04T00:44:41;11.90;99.90
54684;DHT22;40582;53.100;6.686;2023-06-04T00:47:15;11.90;99.90
54684;DHT22;40582;53.100;6.686;2023-06-04T00:49:41;11.90;99.90
54684;DHT22;40582;53.100;6.686;2023-06-04T00:52:10;11.90;99.90
54684;DHT22;40582;53.100;6.686;2023-06-04T00:54:36;11.90;99.90
54684;DHT22;40582;53.100;6.686;2023-06-04T00:57:04;11.90;99.90
54684;DHT22;40582;53.100;6.686;2023-06-04T00:59:31;11.80;99.90
54684;DHT22;40582;53.100;6.686;2023-06-04T01:02:11;11.80;99.90
54684;DHT22;40582;53.100;6.686;2023-06-04T01:07:35;11.70;99.90
54684;DHT22;40582;53.100;6.686;2023-06-04T01:10:02;11.60;99.90
54684;DHT22;40582;53.100;6.686;2023-06-04T01:12:28;11.60;99.90
54684;DHT22;40582;53.100;6.686;2023-06-04T01:14:54;11.60;99.90
54684;DHT22;40582;53.100;6.686;2023-06-04T01:17:25;11.60;99.90
54684;DHT22;40582;53.100;6.686;2023-06-04T01:20:06;11.50;99.90
54684;DHT22;40582;53.100;6.686;2023-06-04T01:25:21;11.40;99.90
54684;DHT22;40582;53.100;6.686;2023-06-04T01:27:54;11.30;99.90
54684;DHT22;40582;53.100;6.686;2023-06-04T01:30:28;11.30;99.90
54684;DHT22;40582;53.100;6.686;2023-06-04T01:32:55;11.30;99.90
54684;DHT22;40582;53.100;6.686;2023-06-04T01:35:22;11.20;99.90
54684;DHT22;40582;53.100;6.686;2023-06-04T01:37:48;11.30;99.90
54684;DHT22;40582;53.100;6.686;2023-06-04T01:40:14;11.30;99.90
54684;DHT22;40582;53.100;6.686;2023-06-04T01:42:41;11.30;99.90
54684;DHT22;40582;53.100;6.686;2023-06-04T01:45:07;11.30;99.90
54684;DHT22;40582;53.100;6.686;2023-06-04T01:47:33;11.30;99.90
54684;DHT22;40582;53.100;6.686;2023-06-04T01:50:00;11.30;99.90
54684;DHT22;40582;53.100;6.686;2023-06-04T01:52:26;11.20;99.90
54684;DHT22;40582;53.100;6.686;2023-06-04T01:54:52;11.30;99.90
54684;DHT22;40582;53.100;6.686;2023-06-04T01:57:21;11.20;99.90
54684;DHT22;40582;53.100;6.686;2023-06-04T01:59:48;11.20;99.90
54684;DHT22;40582;53.100;6.686;2023-06-04T02:02:14;11.20;99.90
54684;DHT22;40582;53.100;6.686;2023-06-04T02:04:40;11.20;99.90
54684;DHT22;40582;53.100;6.686;2023-06-04T02:07:10;11.20;99.90
54684;DHT22;40582;53.100;6.686;2023-06-04T02:09:37;11.20;99.90
54684;DHT22;40582;53.100;6.686;2023-06-04T02:12:03;11.10;99.90
54684;DHT22;40582;53.100;6.686;2023-06-04T02:14:29;11.10;99.90
54684;DHT22;40582;53.100;6.686;2023-06-04T02:16:55;11.20;99.90
54684;DHT22;40582;53.100;6.686;2023-06-04T02:19:26;11.20;99.90
54684;DHT22;40582;53.100;6.686;2023-06-04T02:21:53;11.20;99.90
54684;DHT22;40582;53.100;6.686;2023-06-04T02:24:19;11.20;99.90
54684;DHT22;40582;53.100;6.686;2023-06-04T02:26:45;11.20;99.90
54684;DHT22;40582;53.100;6.686;2023-06-04T02:29:11;11.20;99.90
54684;DHT22;40582;53.100;6.686;2023-06-04T02:31:37;11.20;99.90
54684;DHT22;40582;53.100;6.686;2023-06-04T02:34:03;11.20;99.90
54684;DHT22;40582;53.100;6.686;2023-06-04T02:36:29;11.10;99.90
54684;DHT22;40582;53.100;6.686;2023-06-04T02:38:55;11.20;99.90
54684;DHT22;40582;53.100;6.686;2023-06-04T02:41:22;11.20;99.90
54684;DHT22;40582;53.100;6.686;2023-06-04T02:43:48;11.20;99.90
54684;DHT22;40582;53.100;6.686;2023-06-04T02:46:14;11.10;99.90
54684;DHT22;40582;53.100;6.686;2023-06-04T02:48:39;11.00;99.90
54684;DHT22;40582;53.100;6.686;2023-06-04T02:51:05;11.00;99.90
54684;DHT22;40582;53.100;6.686;2023-06-04T02:53:31;11.00;99.90
54684;DHT22;40582;53.100;6.686;2023-06-04T02:55:56;10.90;99.90
54684;DHT22;40582;53.100;6.686;2023-06-04T02:58:24;10.90;99.90
54684;DHT22;40582;53.100;6.686;2023-06-04T03:00:52;10.90;99.90
54684;DHT22;40582;53.100;6.686;2023-06-04T03:03:18;10.90;99.90
54684;DHT22;40582;53.100;6.686;2023-06-04T03:05:43;10.80;99.90
54684;DHT22;40582;53.100;6.686;2023-06-04T03:08:09;10.70;99.90
54684;DHT22;40582;53.100;6.686;2023-06-04T03:10:35;10.70;99.90
54684;DHT22;40582;53.100;6.686;2023-06-04T03:13:00;10.70;99.90
54684;DHT22;40582;53.100;6.686;2023-06-04T03:15:26;10.80;99.90
54684;DHT22;40582;53.100;6.686;2023-06-04T03:17:52;10.80;99.90
54684;DHT22;40582;53.100;6.686;2023-06-04T03:20:18;10.80;99.90
54684;DHT22;40582;53.100;6.686;2023-06-04T03:22:43;10.70;99.90
54684;DHT22;40582;53.100;6.686;2023-06-04T03:25:09;10.70;99.90
54684;DHT22;40582;53.100;6.686;2023-06-04T03:27:35;10.60;99.90
54684;DHT22;40582;53.100;6.686;2023-06-04T03:30:01;10.60;99.90
54684;DHT22;40582;53.100;6.686;2023-06-04T03:32:28;10.60;99.90
54684;DHT22;40582;53.100;6.686;2023-06-04T03:34:54;10.60;99.90
54684;DHT22;40582;53.100;6.686;2023-06-04T03:37:19;10.70;99.90
54684;DHT22;40582;53.100;6.686;2023-06-04T03:39:45;10.60;99.90
54684;DHT22;40582;53.100;6.686;2023-06-04T03:42:11;10.60;99.90
54684;DHT22;40582;53.100;6.686;2023-06-04T03:44:36;10.60;99.90
54684;DHT22;40582;53.100;6.686;2023-06-04T03:47:02;10.60;99.90
54684;DHT22;40582;53.100;6.686;2023-06-04T03:49:28;10.60;99.90
54684;DHT22;40582;53.100;6.686;2023-06-04T03:51:53;10.60;99.90
54684;DHT22;40582;53.100;6.686;2023-06-04T03:54:19;10.70;99.90
54684;DHT22;40582;53.100;6.686;2023-06-04T03:56:46;10.70;99.90
54684;DHT22;40582;53.100;6.686;2023-06-04T03:59:12;10.70;99.90
54684;DHT22;40582;53.100;6.686;2023-06-04T04:01:38;10.80;99.90
54684;DHT22;40582;53.100;6.686;2023-06-04T04:04:04;10.80;99.90
54684;DHT22;40582;53.100;6.686;2023-06-04T04:06:31;10.80;99.90
54684;DHT22;40582;53.100;6.686;2023-06-04T04:08:56;10.90;99.90
54684;DHT22;40582;53.100;6.686;2023-06-04T04:11:23;10.90;99.90
54684;DHT22;40582;53.100;6.686;2023-06-04T04:13:49;11.00;99.90
54684;DHT22;40582;53.100;6.686;2023-06-04T04:16:15;11.00;99.90
54684;DHT22;40582;53.100;6.686;2023-06-04T04:18:42;10.90;99.90
54684;DHT22;40582;53.100;6.686;2023-06-04T04:21:12;11.00;99.90
54684;DHT22;40582;53.100;6.686;2023-06-04T04:23:40;11.00;99.90
54684;DHT22;40582;53.100;6.686;2023-06-04T04:26:07;11.10;99.90
54684;DHT22;40582;53.100;6.686;2023-06-04T04:28:33;11.20;99.90
54684;DHT22;40582;53.100;6.686;2023-06-04T04:31:00;11.20;99.90
54684;DHT22;40582;53.100;6.686;2023-06-04T04:33:30;11.30;99.90
54684;DHT22;40582;53.100;6.686;2023-06-04T04:35:58;11.40;99.90
54684;DHT22;40582;53.100;6.686;2023-06-04T04:38:25;11.50;99.90
54684;DHT22;40582;53.100;6.686;2023-06-04T04:40:51;11.60;99.90
54684;DHT22;40582;53.100;6.686;2023-06-04T04:43:32;11.70;99.90
54684;DHT22;40582;53.100;6.686;2023-06-04T04:45:58;11.90;99.90
54684;DHT22;40582;53.100;6.686;2023-06-04T04:48:24;12.00;99.90
54684;DHT22;40582;53.100;6.686;2023-06-04T04:50:50;12.10;99.90
54684;DHT22;40582;53.100;6.686;2023-06-04T04:53:16;12.70;99.90
54684;DHT22;40582;53.100;6.686;2023-06-04T04:55:42;13.30;99.90
54684;DHT22;40582;53.100;6.686;2023-06-04T04:58:07;13.50;99.90
54684;DHT22;40582;53.100;6.686;2023-06-04T05:00:33;13.40;99.90
54684;DHT22;40582;53.100;6.686;2023-06-04T05:02:59;13.40;99.90
54684;DHT22;40582;53.100;6.686;2023-06-04T05:05:24;13.60;99.90
54684;DHT22;40582;53.100;6.686;2023-06-04T05:07:50;13.90;99.90
54684;DHT22;40582;53.100;6.686;2023-06-04T05:10:16;14.00;99.90
54684;DHT22;40582;53.100;6.686;2023-06-04T05:12:53;14.30;99.90
54684;DHT22;40582;53.100;6.686;2023-06-04T05:15:19;15.60;99.90
54684;DHT22;40582;53.100;6.686;2023-06-04T05:17:45;16.80;99.90
54684;DHT22;40582;53.100;6.686;2023-06-04T05:20:12;17.90;99.90
54684;DHT22;40582;53.100;6.686;2023-06-04T05:22:39;18.80;99.90
54684;DHT22;40582;53.100;6.686;2023-06-04T05:25:05;19.50;99.90
54684;DHT22;40582;53.100;6.686;2023-06-04T05:27:34;20.20;99.90
54684;DHT22;40582;53.100;6.686;2023-06-04T05:30:03;20.80;99.90
54684;DHT22;40582;53.100;6.686;2023-06-04T05:32:29;21.20;99.90
54684;DHT22;40582;53.100;6.686;2023-06-04T05:34:58;21.80;99.90
54684;DHT22;40582;53.100;6.686;2023-06-04T05:37:25;22.10;98.70
54684;DHT22;40582;53.100;6.686;2023-06-04T05:39:52;22.50;97.90
54684;DHT22;40582;53.100;6.686;2023-06-04T05:42:19;23.00;97.00
54684;DHT22;40582;53.100;6.686;2023-06-04T05:44:44;23.30;95.90
54684;DHT22;40582;53.100;6.686;2023-06-04T05:47:11;23.70;95.00
54684;DHT22;40582;53.100;6.686;2023-06-04T05:49:36;24.20;94.00
54684;DHT22;40582;53.100;6.686;2023-06-04T05:52:02;24.50;92.90
54684;DHT22;40582;53.100;6.686;2023-06-04T05:54:28;24.80;92.30
54684;DHT22;40582;53.100;6.686;2023-06-04T05:56:54;25.10;91.10
54684;DHT22;40582;53.100;6.686;2023-06-04T05:59:20;25.20;90.60
54684;DHT22;40582;53.100;6.686;2023-06-04T06:01:46;25.20;90.10
54684;DHT22;40582;53.100;6.686;2023-06-04T06:04:14;25.40;89.40
54684;DHT22;40582;53.100;6.686;2023-06-04T06:06:39;25.90;88.10
54684;DHT22;40582;53.100;6.686;2023-06-04T06:09:09;26.00;85.80
54684;DHT22;40582;53.100;6.686;2023-06-04T06:11:35;25.70;85.10
54684;DHT22;40582;53.100;6.686;2023-06-04T06:14:01;26.10;84.30
54684;DHT22;40582;53.100;6.686;2023-06-04T06:16:27;26.00;83.60
54684;DHT22;40582;53.100;6.686;2023-06-04T06:18:53;26.20;82.30
54684;DHT22;40582;53.100;6.686;2023-06-04T06:21:19;26.60;81.30
54684;DHT22;40582;53.100;6.686;2023-06-04T06:23:45;27.10;80.30
54684;DHT22;40582;53.100;6.686;2023-06-04T06:26:12;27.50;79.00
54684;DHT22;40582;53.100;6.686;2023-06-04T06:28:38;27.90;77.80
54684;DHT22;40582;53.100;6.686;2023-06-04T06:31:03;27.50;76.80
54684;DHT22;40582;53.100;6.686;2023-06-04T06:33:30;27.60;76.80
54684;DHT22;40582;53.100;6.686;2023-06-04T06:35:57;27.70;76.50
54684;DHT22;40582;53.100;6.686;2023-06-04T06:38:26;28.00;75.90
54684;DHT22;40582;53.100;6.686;2023-06-04T06:40:52;28.20;74.30
54684;DHT22;40582;53.100;6.686;2023-06-04T06:43:18;28.30;73.50
54684;DHT22;40582;53.100;6.686;2023-06-04T06:45:43;28.10;73.10
54684;DHT22;40582;53.100;6.686;2023-06-04T06:48:09;28.20;72.50
54684;DHT22;40582;53.100;6.686;2023-06-04T06:50:35;27.90;72.00
54684;DHT22;40582;53.100;6.686;2023-06-04T06:53:04;28.10;72.20
54684;DHT22;40582;53.100;6.686;2023-06-04T06:55:29;28.50;71.20
54684;DHT22;40582;53.100;6.686;2023-06-04T06:57:55;29.00;70.90
54684;DHT22;40582;53.100;6.686;2023-06-04T07:00:21;29.20;70.70
54684;DHT22;40582;53.100;6.686;2023-06-04T07:02:47;29.60;70.00
54684;DHT22;40582;53.100;6.686;2023-06-04T07:05:13;29.70;69.00
54684;DHT22;40582;53.100;6.686;2023-06-04T07:07:40;29.80;68.60
54684;DHT22;40582;53.100;6.686;2023-06-04T07:10:06;29.90;68.60
54684;DHT22;40582;53.100;6.686;2023-06-04T07:12:32;30.00;67.60
54684;DHT22;40582;53.100;6.686;2023-06-04T07:14:58;30.00;67.20
54684;DHT22;40582;53.100;6.686;2023-06-04T07:17:23;29.80;66.50
54684;DHT22;40582;53.100;6.686;2023-06-04T07:19:49;29.80;65.90
54684;DHT22;40582;53.100;6.686;2023-06-04T07:22:14;29.70;66.00
54684;DHT22;40582;53.100;6.686;2023-06-04T07:24:43;29.60;65.50
54684;DHT22;40582;53.100;6.686;2023-06-04T07:27:12;29.60;64.80
54684;DHT22;40582;53.100;6.686;2023-06-04T07:29:39;29.30;63.50
54684;DHT22;40582;53.100;6.686;2023-06-04T07:32:05;29.00;63.70
54684;DHT22;40582;53.100;6.686;2023-06-04T07:34:32;29.10;63.80
54684;DHT22;40582;53.100;6.686;2023-06-04T07:36:58;29.40;64.20
54684;DHT22;40582;53.100;6.686;2023-06-04T07:39:23;29.60;62.90
54684;DHT22;40582;53.100;6.686;2023-06-04T07:41:49;29.50;62.30
54684;DHT22;40582;53.100;6.686;2023-06-04T07:44:15;29.40;61.80
54684;DHT22;40582;53.100;6.686;2023-06-04T07:46:41;29.40;60.60
54684;DHT22;40582;53.100;6.686;2023-06-04T07:49:06;29.40;61.10
54684;DHT22;40582;53.100;6.686;2023-06-04T07:51:32;29.20;60.60
54684;DHT22;40582;53.100;6.686;2023-06-04T07:53:57;29.20;60.50
54684;DHT22;40582;53.100;6.686;2023-06-04T07:56:23;29.30;59.30
54684;DHT22;40582;53.100;6.686;2023-06-04T07:58:49;29.30;58.20
54684;DHT22;40582;53.100;6.686;2023-06-04T08:01:14;29.30;57.70
54684;DHT22;40582;53.100;6.686;2023-06-04T08:03:41;29.20;57.60
54684;DHT22;40582;53.100;6.686;2023-06-04T08:06:07;28.90;57.90
54684;DHT22;40582;53.100;6.686;2023-06-04T08:08:32;28.60;58.00
54684;DHT22;40582;53.100;6.686;2023-06-04T08:10:59;28.60;58.90
54684;DHT22;40582;53.100;6.686;2023-06-04T08:13:25;28.70;58.30
54684;DHT22;40582;53.100;6.686;2023-06-04T08:15:51;28.80;58.10
54684;DHT22;40582;53.100;6.686;2023-06-04T08:18:17;28.80;58.30
54684;DHT22;40582;53.100;6.686;2023-06-04T08:20:42;28.70;58.30
54684;DHT22;40582;53.100;6.686;2023-06-04T08:23:08;28.70;59.00
54684;DHT22;40582;53.100;6.686;2023-06-04T08:25:34;28.60;59.00
54684;DHT22;40582;53.100;6.686;2023-06-04T08:27:59;28.80;59.10
54684;DHT22;40582;53.100;6.686;2023-06-04T08:30:25;28.70;57.90
54684;DHT22;40582;53.100;6.686;2023-06-04T08:32:53;28.40;57.90
54684;DHT22;40582;53.100;6.686;2023-06-04T08:35:18;28.30;58.10
54684;DHT22;40582;53.100;6.686;2023-06-04T08:37:44;28.10;59.20
54684;DHT22;40582;53.100;6.686;2023-06-04T08:40:10;28.10;60.20
54684;DHT22;40582;53.100;6.686;2023-06-04T08:42:43;28.20;60.80
54684;DHT22;40582;53.100;6.686;2023-06-04T08:45:13;28.30;60.30
54684;DHT22;40582;53.100;6.686;2023-06-04T08:47:44;28.30;61.00
54684;DHT22;40582;53.100;6.686;2023-06-04T08:50:16;28.20;60.80
54684;DHT22;40582;53.100;6.686;2023-06-04T08:52:42;28.00;60.20
54684;DHT22;40582;53.100;6.686;2023-06-04T08:55:09;27.80;61.00
54684;DHT22;40582;53.100;6.686;2023-06-04T08:57:35;27.70;62.30
54684;DHT22;40582;53.100;6.686;2023-06-04T09:00:01;27.80;61.60
54684;DHT22;40582;53.100;6.686;2023-06-04T09:02:30;27.70;62.00
54684;DHT22;40582;53.100;6.686;2023-06-04T09:04:56;27.40;62.60
54684;DHT22;40582;53.100;6.686;2023-06-04T09:07:23;27.30;62.90
54684;DHT22;40582;53.100;6.686;2023-06-04T09:09:50;27.10;63.10
54684;DHT22;40582;53.100;6.686;2023-06-04T09:12:23;26.90;63.90
54684;DHT22;40582;53.100;6.686;2023-06-04T09:14:48;26.90;64.10
54684;DHT22;40582;53.100;6.686;2023-06-04T09:17:22;26.90;63.80
54684;DHT22;40582;53.100;6.686;2023-06-04T09:19:49;26.80;63.70
54684;DHT22;40582;53.100;6.686;2023-06-04T09:22:16;26.70;64.40
54684;DHT22;40582;53.100;6.686;2023-06-04T09:24:46;26.70;64.80
54684;DHT22;40582;53.100;6.686;2023-06-04T09:27:16;26.60;64.70
54684;DHT22;40582;53.100;6.686;2023-06-04T09:29:52;26.70;64.70
54684;DHT22;40582;53.100;6.686;2023-06-04T09:32:22;26.70;65.40
54684;DHT22;40582;53.100;6.686;2023-06-04T09:34:48;26.70;64.30
54684;DHT22;40582;53.100;6.686;2023-06-04T09:37:15;26.70;64.90
54684;DHT22;40582;53.100;6.686;2023-06-04T09:39:44;26.70;64.70
54684;DHT22;40582;53.100;6.686;2023-06-04T09:42:17;26.80;64.50
54684;DHT22;40582;53.100;6.686;2023-06-04T09:44:44;26.60;64.30
54684;DHT22;40582;53.100;6.686;2023-06-04T09:47:12;26.60;64.30
54684;DHT22;40582;53.100;6.686;2023-06-04T09:49:49;26.40;64.30
54684;DHT22;40582;53.100;6.686;2023-06-04T09:52:17;26.30;64.40
54684;DHT22;40582;53.100;6.686;2023-06-04T09:54:43;26.20;64.50
54684;DHT22;40582;53.100;6.686;2023-06-04T09:57:16;26.10;64.80
54684;DHT22;40582;53.100;6.686;2023-06-04T09:59:45;26.10;64.30
54684;DHT22;40582;53.100;6.686;2023-06-04T10:02:20;26.10;65.30
54684;DHT22;40582;53.100;6.686;2023-06-04T10:04:53;25.90;64.90
54684;DHT22;40582;53.100;6.686;2023-06-04T10:07:25;25.80;64.70
54684;DHT22;40582;53.100;6.686;2023-06-04T10:09:52;25.70;65.30
54684;DHT22;40582;53.100;6.686;2023-06-04T10:12:23;25.70;64.80
54684;DHT22;40582;53.100;6.686;2023-06-04T10:15:01;25.70;65.60
54684;DHT22;40582;53.100;6.686;2023-06-04T10:17:28;25.60;65.70
54684;DHT22;40582;53.100;6.686;2023-06-04T10:19:56;25.60;66.00
54684;DHT22;40582;53.100;6.686;2023-06-04T10:22:23;25.60;65.70
54684;DHT22;40582;53.100;6.686;2023-06-04T10:24:50;25.40;65.70
54684;DHT22;40582;53.100;6.686;2023-06-04T10:27:19;25.40;66.40
54684;DHT22;40582;53.100;6.686;2023-06-04T10:29:46;25.10;66.50
54684;DHT22;40582;53.100;6.686;2023-06-04T10:32:12;25.10;66.70
54684;DHT22;40582;53.100;6.686;2023-06-04T10:34:38;25.20;67.40
54684;DHT22;40582;53.100;6.686;2023-06-04T10:37:04;25.30;67.00
54684;DHT22;40582;53.100;6.686;2023-06-04T10:39:31;25.20;65.80
54684;DHT22;40582;53.100;6.686;2023-06-04T10:42:04;25.10;66.70
54684;DHT22;40582;53.100;6.686;2023-06-04T10:44:31;25.10;66.50
54684;DHT22;40582;53.100;6.686;2023-06-04T10:46:58;25.00;67.50
54684;DHT22;40582;53.100;6.686;2023-06-04T10:49:28;24.90;67.30
54684;DHT22;40582;53.100;6.686;2023-06-04T10:51:54;24.70;67.40
54684;DHT22;40582;53.100;6.686;2023-06-04T10:54:28;24.60;67.40
54684;DHT22;40582;53.100;6.686;2023-06-04T10:56:55;24.50;67.60
54684;DHT22;40582;53.100;6.686;2023-06-04T10:59:21;24.50;68.60
54684;DHT22;40582;53.100;6.686;2023-06-04T11:01:47;24.50;68.70
54684;DHT22;40582;53.100;6.686;2023-06-04T11:04:23;24.40;68.90
54684;DHT22;40582;53.100;6.686;2023-06-04T11:07:06;24.20;67.50
54684;DHT22;40582;53.100;6.686;2023-06-04T11:09:47;24.00;67.50
54684;DHT22;40582;53.100;6.686;2023-06-04T11:12:13;24.00;67.60
54684;DHT22;40582;53.100;6.686;2023-06-04T11:14:39;23.90;68.30
54684;DHT22;40582;53.100;6.686;2023-06-04T11:17:12;23.90;68.70
54684;DHT22;40582;53.100;6.686;2023-06-04T11:19:38;23.80;69.00
54684;DHT22;40582;53.100;6.686;2023-06-04T11:22:05;23.90;70.40
54684;DHT22;40582;53.100;6.686;2023-06-04T11:24:32;24.00;70.90
54684;DHT22;40582;53.100;6.686;2023-06-04T11:26:58;24.20;70.60
54684;DHT22;40582;53.100;6.686;2023-06-04T11:29:28;24.20;70.70
54684;DHT22;40582;53.100;6.686;2023-06-04T11:31:54;24.10;70.50
54684;DHT22;40582;53.100;6.686;2023-06-04T11:34:27;24.20;71.30
54684;DHT22;40582;53.100;6.686;2023-06-04T11:36:53;24.20;70.70
54684;DHT22;40582;53.100;6.686;2023-06-04T11:39:33;24.20;70.00
54684;DHT22;40582;53.100;6.686;2023-06-04T11:41:59;24.10;70.90
54684;DHT22;40582;53.100;6.686;2023-06-04T11:44:29;24.10;69.90
54684;DHT22;40582;53.100;6.686;2023-06-04T11:46:55;24.00;70.20
54684;DHT22;40582;53.100;6.686;2023-06-04T11:49:21;24.00;70.80
54684;DHT22;40582;53.100;6.686;2023-06-04T11:51:51;24.20;70.30
54684;DHT22;40582;53.100;6.686;2023-06-04T11:54:18;24.20;70.60
54684;DHT22;40582;53.100;6.686;2023-06-04T11:56:45;24.20;70.70
54684;DHT22;40582;53.100;6.686;2023-06-04T11:59:15;24.10;70.00
54684;DHT22;40582;53.100;6.686;2023-06-04T12:01:42;24.10;69.70
54684;DHT22;40582;53.100;6.686;2023-06-04T12:04:15;24.00;70.30
54684;DHT22;40582;53.100;6.686;2023-06-04T12:06:52;24.10;71.00
54684;DHT22;40582;53.100;6.686;2023-06-04T12:09:23;24.10;68.20
54684;DHT22;40582;53.100;6.686;2023-06-04T12:11:49;24.00;69.90
54684;DHT22;40582;53.100;6.686;2023-06-04T12:14:17;24.00;71.50
54684;DHT22;40582;53.100;6.686;2023-06-04T12:16:58;24.00;70.70
54684;DHT22;40582;53.100;6.686;2023-06-04T12:19:24;23.90;72.60
54684;DHT22;40582;53.100;6.686;2023-06-04T12:22:02;24.00;70.90
54684;DHT22;40582;53.100;6.686;2023-06-04T12:24:30;24.00;72.40
54684;DHT22;40582;53.100;6.686;2023-06-04T12:27:09;23.80;70.60
54684;DHT22;40582;53.100;6.686;2023-06-04T12:29:35;23.60;70.60
54684;DHT22;40582;53.100;6.686;2023-06-04T12:32:10;23.50;71.40
54684;DHT22;40582;53.100;6.686;2023-06-04T12:34:41;23.60;72.60
54684;DHT22;40582;53.100;6.686;2023-06-04T12:37:07;23.70;72.70
54684;DHT22;40582;53.100;6.686;2023-06-04T12:39:34;23.40;71.50
54684;DHT22;40582;53.100;6.686;2023-06-04T12:42:02;23.40;71.90
54684;DHT22;40582;53.100;6.686;2023-06-04T12:44:28;23.40;72.60
54684;DHT22;40582;53.100;6.686;2023-06-04T12:46:54;23.50;73.20
54684;DHT22;40582;53.100;6.686;2023-06-04T12:49:20;23.60;73.40
54684;DHT22;40582;53.100;6.686;2023-06-04T12:51:46;23.50;73.00
54684;DHT22;40582;53.100;6.686;2023-06-04T12:54:12;23.60;72.20
54684;DHT22;40582;53.100;6.686;2023-06-04T12:56:40;23.50;71.90
54684;DHT22;40582;53.100;6.686;2023-06-04T12:59:09;23.60;71.90
54684;DHT22;40582;53.100;6.686;2023-06-04T13:01:35;23.50;72.60
54684;DHT22;40582;53.100;6.686;2023-06-04T13:04:03;23.60;73.40
54684;DHT22;40582;53.100;6.686;2023-06-04T13:06:28;23.70;72.50
54684;DHT22;40582;53.100;6.686;2023-06-04T13:08:54;23.50;71.80
54684;DHT22;40582;53.100;6.686;2023-06-04T13:11:20;23.40;72.00
54684;DHT22;40582;53.100;6.686;2023-06-04T13:13:47;23.30;73.00
54684;DHT22;40582;53.100;6.686;2023-06-04T13:16:13;23.40;72.90
54684;DHT22;40582;53.100;6.686;2023-06-04T13:18:39;23.50;72.40
54684;DHT22;40582;53.100;6.686;2023-06-04T13:21:05;23.50;72.20
54684;DHT22;40582;53.100;6.686;2023-06-04T13:23:31;23.50;72.20
54684;DHT22;40582;53.100;6.686;2023-06-04T13:25:56;23.60;72.20
54684;DHT22;40582;53.100;6.686;2023-06-04T13:28:22;23.50;72.00
54684;DHT22;40582;53.100;6.686;2023-06-04T13:30:48;23.40;71.60
54684;DHT22;40582;53.100;6.686;2023-06-04T13:33:14;23.20;71.60
54684;DHT22;40582;53.100;6.686;2023-06-04T13:35:40;23.10;71.90
54684;DHT22;40582;53.100;6.686;2023-06-04T13:38:08;23.10;72.10
54684;DHT22;40582;53.100;6.686;2023-06-04T13:40:34;22.90;71.80
54684;DHT22;40582;53.100;6.686;2023-06-04T13:43:01;22.80;72.60
54684;DHT22;40582;53.100;6.686;2023-06-04T13:45:26;22.90;73.70
54684;DHT22;40582;53.100;6.686;2023-06-04T13:47:52;23.00;74.40
54684;DHT22;40582;53.100;6.686;2023-06-04T13:50:18;23.10;74.10
54684;DHT22;40582;53.100;6.686;2023-06-04T13:52:44;23.10;74.50
54684;DHT22;40582;53.100;6.686;2023-06-04T13:55:12;23.20;73.50
54684;DHT22;40582;53.100;6.686;2023-06-04T13:57:37;23.10;73.80
54684;DHT22;40582;53.100;6.686;2023-06-04T14:00:04;23.10;73.60
54684;DHT22;40582;53.100;6.686;2023-06-04T14:02:30;23.00;73.30
54684;DHT22;40582;53.100;6.686;2023-06-04T14:04:55;22.90;72.90
54684;DHT22;40582;53.100;6.686;2023-06-04T14:07:22;22.80;73.10
54684;DHT22;40582;53.100;6.686;2023-06-04T14:09:47;22.70;74.20
54684;DHT22;40582;53.100;6.686;2023-06-04T14:12:14;22.60;74.10
54684;DHT22;40582;53.100;6.686;2023-06-04T14:14:43;22.50;75.10
54684;DHT22;40582;53.100;6.686;2023-06-04T14:17:09;22.50;75.60
54684;DHT22;40582;53.100;6.686;2023-06-04T14:19:35;22.40;74.80
54684;DHT22;40582;53.100;6.686;2023-06-04T14:22:04;22.40;75.30
54684;DHT22;40582;53.100;6.686;2023-06-04T14:24:29;22.30;75.40
54684;DHT22;40582;53.100;6.686;2023-06-04T14:26:56;22.20;75.50
54684;DHT22;40582;53.100;6.686;2023-06-04T14:29:21;22.20;75.20
54684;DHT22;40582;53.100;6.686;2023-06-04T14:31:47;22.10;75.80
54684;DHT22;40582;53.100;6.686;2023-06-04T14:34:13;22.10;76.40
54684;DHT22;40582;53.100;6.686;2023-06-04T14:36:38;22.10;76.50
54684;DHT22;40582;53.100;6.686;2023-06-04T14:39:04;22.00;76.40
54684;DHT22;40582;53.100;6.686;2023-06-04T14:41:30;21.90;76.60
54684;DHT22;40582;53.100;6.686;2023-06-04T14:43:56;21.80;76.30
54684;DHT22;40582;53.100;6.686;2023-06-04T14:46:22;21.70;76.70
54684;DHT22;40582;53.100;6.686;2023-06-04T14:48:47;21.50;77.30
54684;DHT22;40582;53.100;6.686;2023-06-04T14:51:13;21.50;77.60
54684;DHT22;40582;53.100;6.686;2023-06-04T14:53:39;21.50;77.80
54684;DHT22;40582;53.100;6.686;2023-06-04T14:56:05;21.40;77.50
54684;DHT22;40582;53.100;6.686;2023-06-04T14:58:31;21.40;77.70
54684;DHT22;40582;53.100;6.686;2023-06-04T15:00:58;21.30;77.70
54684;DHT22;40582;53.100;6.686;2023-06-04T15:03:25;21.30;78.00
54684;DHT22;40582;53.100;6.686;2023-06-04T15:05:51;21.20;76.90
54684;DHT22;40582;53.100;6.686;2023-06-04T15:08:17;21.20;77.10
54684;DHT22;40582;53.100;6.686;2023-06-04T15:10:43;21.10;76.80
54684;DHT22;40582;53.100;6.686;2023-06-04T15:13:09;21.00;77.90
54684;DHT22;40582;53.100;6.686;2023-06-04T15:15:34;21.00;78.50
54684;DHT22;40582;53.100;6.686;2023-06-04T15:18:00;20.90;78.50
54684;DHT22;40582;53.100;6.686;2023-06-04T15:20:26;20.90;78.30
54684;DHT22;40582;53.100;6.686;2023-06-04T15:22:54;20.80;78.30
54684;DHT22;40582;53.100;6.686;2023-06-04T15:25:20;20.60;78.40
54684;DHT22;40582;53.100;6.686;2023-06-04T15:27:46;20.50;79.50
54684;DHT22;40582;53.100;6.686;2023-06-04T15:30:11;20.50;79.30
54684;DHT22;40582;53.100;6.686;2023-06-04T15:32:37;20.50;79.40
54684;DHT22;40582;53.100;6.686;2023-06-04T15:35:06;20.40;79.70